sensor_id;sensor_type;location;lat;lon;timestamp;temperature;humidity
29303;DHT22;60019;45.556;12.004;2023-02-11T00:02:08;10.40;60.00
29303;DHT22;60019;45.556;12.004;2023-02-11T00:08:10;10.20;60.10
29303;DHT22;60019;45.556;12.004;2023-02-11T00:14:17;10.10;60.30
29303;DHT22;60019;45.556;12.004;2023-02-11T00:20:19;9.80;60.00
29303;DHT22;60019;45.556;12.004;2023-02-11T00:26:23;9.60;59.90
29303;DHT22;60019;45.556;12.004;2023-02-11T00:32:25;9.40;59.80
29303;DHT22;60019;45.556;12.004;2023-02-11T00:38:27;9.10;59.70
29303;DHT22;60019;45.556;12.004;2023-02-11T00:44:29;8.90;59.60
29303;DHT22;60019;45.556;12.004;2023-02-11T00:50:31;8.70;59.80
29303;DHT22;60019;45.556;12.004;2023-02-11T00:56:33;8.50;59.90
29303;DHT22;60019;45.556;12.004;2023-02-11T01:02:35;8.30;59.90
29303;DHT22;60019;45.556;12.004;2023-02-11T01:08:37;8.20;60.00
29303;DHT22;60019;45.556;12.004;2023-02-11T01:14:38;8.00;60.20
29303;DHT22;60019;45.556;12.004;2023-02-11T01:20:40;7.90;60.30
29303;DHT22;60019;45.556;12.004;2023-02-11T01:26:41;7.80;60.60
29303;DHT22;60019;45.556;12.004;2023-02-11T01:32:43;7.60;61.50
29303;DHT22;60019;45.556;12.004;2023-02-11T01:38:45;7.50;60.90
29303;DHT22;60019;45.556;12.004;2023-02-11T01:44:52;7.40;61.10
29303;DHT22;60019;45.556;12.004;2023-02-11T01:51:02;7.30;61.30
29303;DHT22;60019;45.556;12.004;2023-02-11T01:57:05;7.20;61.40
29303;DHT22;60019;45.556;12.004;2023-02-11T02:03:23;7.10;61.60
29303;DHT22;60019;45.556;12.004;2023-02-11T02:09:28;7.00;61.80
29303;DHT22;60019;45.556;12.004;2023-02-11T02:15:34;6.90;62.00
29303;DHT22;60019;45.556;12.004;2023-02-11T02:41:41;6.50;62.80
29303;DHT22;60019;45.556;12.004;2023-02-11T02:47:43;6.40;63.00
29303;DHT22;60019;45.556;12.004;2023-02-11T03:12:50;6.00;63.70
29303;DHT22;60019;45.556;12.004;2023-02-11T03:19:35;5.90;63.80
29303;DHT22;60019;45.556;12.004;2023-02-11T03:25:33;5.80;63.90
29303;DHT22;60019;45.556;12.004;2023-02-11T03:37:52;5.70;64.30
29303;DHT22;60019;45.556;12.004;2023-02-11T03:43:57;5.60;64.30
29303;DHT22;60019;45.556;12.004;2023-02-11T03:50:03;5.60;64.40
29303;DHT22;60019;45.556;12.004;2023-02-11T03:56:08;5.50;64.50
29303;DHT22;60019;45.556;12.004;2023-02-11T04:02:10;5.50;64.60
29303;DHT22;60019;45.556;12.004;2023-02-11T04:08:12;5.40;64.60
29303;DHT22;60019;45.556;12.004;2023-02-11T04:14:13;5.40;64.70
29303;DHT22;60019;45.556;12.004;2023-02-11T04:20:15;5.40;64.80
29303;DHT22;60019;45.556;12.004;2023-02-11T04:26:16;5.30;64.80
29303;DHT22;60019;45.556;12.004;2023-02-11T04:32:18;5.30;64.90
29303;DHT22;60019;45.556;12.004;2023-02-11T04:38:20;5.20;64.90
29303;DHT22;60019;45.556;12.004;2023-02-11T04:44:24;5.20;65.00
29303;DHT22;60019;45.556;12.004;2023-02-11T04:50:25;5.20;66.00
29303;DHT22;60019;45.556;12.004;2023-02-11T04:56:27;5.20;65.50
29303;DHT22;60019;45.556;12.004;2023-02-11T05:02:28;5.30;65.80
29303;DHT22;60019;45.556;12.004;2023-02-11T05:08:30;5.60;66.00
29303;DHT22;60019;45.556;12.004;2023-02-11T05:14:31;5.90;66.20
29303;DHT22;60019;45.556;12.004;2023-02-11T05:20:33;6.10;66.30
29303;DHT22;60019;45.556;12.004;2023-02-11T05:26:35;6.40;66.10
29303;DHT22;60019;45.556;12.004;2023-02-11T05:32:36;6.60;66.00
29303;DHT22;60019;45.556;12.004;2023-02-11T05:38:38;6.80;65.80
29303;DHT22;60019;45.556;12.004;2023-02-11T05:44:40;7.00;65.60
29303;DHT22;60019;45.556;12.004;2023-02-11T05:50:42;7.20;65.40
29303;DHT22;60019;45.556;12.004;2023-02-11T05:56:43;7.30;65.30
29303;DHT22;60019;45.556;12.004;2023-02-11T06:02:45;7.40;65.10
29303;DHT22;60019;45.556;12.004;2023-02-11T06:08:46;7.60;65.10
29303;DHT22;60019;45.556;12.004;2023-02-11T06:14:48;7.60;64.90
29303;DHT22;60019;45.556;12.004;2023-02-11T06:20:50;7.70;65.00
29303;DHT22;60019;45.556;12.004;2023-02-11T06:26:51;7.80;64.70
29303;DHT22;60019;45.556;12.004;2023-02-11T06:32:53;7.90;64.50
29303;DHT22;60019;45.556;12.004;2023-02-11T06:38:55;8.00;64.50
29303;DHT22;60019;45.556;12.004;2023-02-11T06:44:57;8.10;64.40
29303;DHT22;60019;45.556;12.004;2023-02-11T06:51:03;8.20;64.20
29303;DHT22;60019;45.556;12.004;2023-02-11T06:57:05;8.40;65.60
29303;DHT22;60019;45.556;12.004;2023-02-11T07:03:06;8.80;67.50
29303;DHT22;60019;45.556;12.004;2023-02-11T07:09:08;9.20;67.70
29303;DHT22;60019;45.556;12.004;2023-02-11T07:15:10;9.60;67.50
29303;DHT22;60019;45.556;12.004;2023-02-11T07:21:14;9.90;67.20
29303;DHT22;60019;45.556;12.004;2023-02-11T07:27:16;10.20;67.00
29303;DHT22;60019;45.556;12.004;2023-02-11T07:33:17;10.60;66.70
29303;DHT22;60019;45.556;12.004;2023-02-11T07:39:19;10.90;66.40
29303;DHT22;60019;45.556;12.004;2023-02-11T07:45:22;11.20;66.10
29303;DHT22;60019;45.556;12.004;2023-02-11T07:51:29;11.60;66.10
29303;DHT22;60019;45.556;12.004;2023-02-11T07:57:31;12.00;66.90
29303;DHT22;60019;45.556;12.004;2023-02-11T08:03:33;12.40;66.80
29303;DHT22;60019;45.556;12.004;2023-02-11T08:09:35;12.60;66.70
29303;DHT22;60019;45.556;12.004;2023-02-11T08:15:36;12.90;67.20
29303;DHT22;60019;45.556;12.004;2023-02-11T08:21:39;13.20;67.50
29303;DHT22;60019;45.556;12.004;2023-02-11T08:27:41;13.50;67.70
29303;DHT22;60019;45.556;12.004;2023-02-11T08:33:43;13.70;67.80
29303;DHT22;60019;45.556;12.004;2023-02-11T08:39:44;13.70;68.30
29303;DHT22;60019;45.556;12.004;2023-02-11T08:45:47;13.80;68.50
29303;DHT22;60019;45.556;12.004;2023-02-11T08:51:49;14.00;68.30
29303;DHT22;60019;45.556;12.004;2023-02-11T08:57:50;14.20;67.80
29303;DHT22;60019;45.556;12.004;2023-02-11T09:10:58;14.50;66.80
29303;DHT22;60019;45.556;12.004;2023-02-11T09:16:59;14.70;66.50
29303;DHT22;60019;45.556;12.004;2023-02-11T09:23:01;15.00;66.30
29303;DHT22;60019;45.556;12.004;2023-02-11T09:29:03;15.10;66.00
29303;DHT22;60019;45.556;12.004;2023-02-11T09:35:05;15.30;65.80
29303;DHT22;60019;45.556;12.004;2023-02-11T09:54:29;15.70;65.00
29303;DHT22;60019;45.556;12.004;2023-02-11T10:27:21;16.40;64.50
29303;DHT22;60019;45.556;12.004;2023-02-11T10:33:31;16.60;64.30
29303;DHT22;60019;45.556;12.004;2023-02-11T10:39:34;16.70;64.20
29303;DHT22;60019;45.556;12.004;2023-02-11T10:45:42;16.70;64.00
29303;DHT22;60019;45.556;12.004;2023-02-11T10:51:44;16.70;63.70
29303;DHT22;60019;45.556;12.004;2023-02-11T10:57:57;16.70;63.50
29303;DHT22;60019;45.556;12.004;2023-02-11T11:04:00;16.80;63.30
29303;DHT22;60019;45.556;12.004;2023-02-11T11:10:06;16.90;63.10
29303;DHT22;60019;45.556;12.004;2023-02-11T11:22:22;17.10;62.80
29303;DHT22;60019;45.556;12.004;2023-02-11T11:28:25;17.20;63.30
29303;DHT22;60019;45.556;12.004;2023-02-11T11:34:34;17.20;64.10
29303;DHT22;60019;45.556;12.004;2023-02-11T11:40:38;17.30;64.90
29303;DHT22;60019;45.556;12.004;2023-02-11T11:46:43;17.20;65.10
29303;DHT22;60019;45.556;12.004;2023-02-11T11:52:47;17.30;65.50
29303;DHT22;60019;45.556;12.004;2023-02-11T11:58:50;17.20;65.10
29303;DHT22;60019;45.556;12.004;2023-02-11T12:05:05;17.20;64.90
29303;DHT22;60019;45.556;12.004;2023-02-11T12:31:01;17.60;66.40
29303;DHT22;60019;45.556;12.004;2023-02-11T12:43:43;17.80;66.70
29303;DHT22;60019;45.556;12.004;2023-02-11T12:56:26;17.80;65.70
29303;DHT22;60019;45.556;12.004;2023-02-11T13:08:52;17.80;65.50
29303;DHT22;60019;45.556;12.004;2023-02-11T13:14:58;17.80;65.60
29303;DHT22;60019;45.556;12.004;2023-02-11T13:33:20;17.30;67.50
29303;DHT22;60019;45.556;12.004;2023-02-11T13:39:30;17.00;67.50
29303;DHT22;60019;45.556;12.004;2023-02-11T13:45:56;16.90;67.60
29303;DHT22;60019;45.556;12.004;2023-02-11T13:51:59;16.70;67.80
29303;DHT22;60019;45.556;12.004;2023-02-11T14:04:23;15.90;61.40
29303;DHT22;60019;45.556;12.004;2023-02-11T14:10:48;15.60;59.20
29303;DHT22;60019;45.556;12.004;2023-02-11T14:23:21;15.40;61.10
29303;DHT22;60019;45.556;12.004;2023-02-11T14:35:50;15.20;61.40
29303;DHT22;60019;45.556;12.004;2023-02-11T14:41:57;15.10;61.80
29303;DHT22;60019;45.556;12.004;2023-02-11T14:54:13;15.00;62.60
29303;DHT22;60019;45.556;12.004;2023-02-11T15:00:20;15.00;63.00
29303;DHT22;60019;45.556;12.004;2023-02-11T15:06:39;15.20;64.10
29303;DHT22;60019;45.556;12.004;2023-02-11T15:12:44;15.60;63.60
29303;DHT22;60019;45.556;12.004;2023-02-11T15:19:03;15.80;63.70
29303;DHT22;60019;45.556;12.004;2023-02-11T15:31:16;16.30;64.20
29303;DHT22;60019;45.556;12.004;2023-02-11T15:37:26;16.50;64.40
29303;DHT22;60019;45.556;12.004;2023-02-11T15:43:47;16.60;64.40
29303;DHT22;60019;45.556;12.004;2023-02-11T15:49:50;16.70;64.50
29303;DHT22;60019;45.556;12.004;2023-02-11T16:02:29;16.90;64.70
29303;DHT22;60019;45.556;12.004;2023-02-11T16:08:31;16.90;64.80
29303;DHT22;60019;45.556;12.004;2023-02-11T16:14:35;17.00;64.80
29303;DHT22;60019;45.556;12.004;2023-02-11T16:20:46;17.00;64.80
29303;DHT22;60019;45.556;12.004;2023-02-11T16:26:49;17.00;64.80
29303;DHT22;60019;45.556;12.004;2023-02-11T16:32:52;17.00;64.70
29303;DHT22;60019;45.556;12.004;2023-02-11T16:38:54;17.00;64.70
29303;DHT22;60019;45.556;12.004;2023-02-11T16:44:55;17.00;64.70
29303;DHT22;60019;45.556;12.004;2023-02-11T16:50:57;16.90;64.70
29303;DHT22;60019;45.556;12.004;2023-02-11T16:56:59;16.90;64.70
29303;DHT22;60019;45.556;12.004;2023-02-11T17:03:05;16.90;64.70
29303;DHT22;60019;45.556;12.004;2023-02-11T17:09:20;16.90;64.70
29303;DHT22;60019;45.556;12.004;2023-02-11T17:15:22;16.90;64.70
29303;DHT22;60019;45.556;12.004;2023-02-11T17:21:23;16.80;64.70
29303;DHT22;60019;45.556;12.004;2023-02-11T17:27:26;16.80;64.70
29303;DHT22;60019;45.556;12.004;2023-02-11T17:33:28;16.80;64.80
29303;DHT22;60019;45.556;12.004;2023-02-11T17:39:29;16.70;64.70
29303;DHT22;60019;45.556;12.004;2023-02-11T17:45:31;16.70;64.70
29303;DHT22;60019;45.556;12.004;2023-02-11T17:51:35;16.70;64.80
29303;DHT22;60019;45.556;12.004;2023-02-11T17:57:37;16.70;64.80
29303;DHT22;60019;45.556;12.004;2023-02-11T18:03:38;16.60;64.70
29303;DHT22;60019;45.556;12.004;2023-02-11T18:09:40;16.60;64.70
29303;DHT22;60019;45.556;12.004;2023-02-11T18:15:42;16.50;64.60
29303;DHT22;60019;45.556;12.004;2023-02-11T18:21:43;16.50;64.70
29303;DHT22;60019;45.556;12.004;2023-02-11T18:27:45;16.40;64.60
29303;DHT22;60019;45.556;12.004;2023-02-11T18:33:46;16.40;64.60
29303;DHT22;60019;45.556;12.004;2023-02-11T18:39:49;16.30;64.60
29303;DHT22;60019;45.556;12.004;2023-02-11T18:45:50;16.30;64.50
29303;DHT22;60019;45.556;12.004;2023-02-11T18:51:53;16.40;64.50
29303;DHT22;60019;45.556;12.004;2023-02-11T18:57:55;16.40;64.40
29303;DHT22;60019;45.556;12.004;2023-02-11T19:03:58;16.40;64.30
29303;DHT22;60019;45.556;12.004;2023-02-11T19:10:00;16.40;64.30
29303;DHT22;60019;45.556;12.004;2023-02-11T19:16:07;16.50;64.30
29303;DHT22;60019;45.556;12.004;2023-02-11T19:22:09;16.50;64.20
29303;DHT22;60019;45.556;12.004;2023-02-11T19:28:11;16.50;64.20
29303;DHT22;60019;45.556;12.004;2023-02-11T19:34:14;16.50;64.10
29303;DHT22;60019;45.556;12.004;2023-02-11T19:40:16;16.50;64.10
29303;DHT22;60019;45.556;12.004;2023-02-11T19:46:22;16.50;64.10
29303;DHT22;60019;45.556;12.004;2023-02-11T19:52:25;16.50;64.00
29303;DHT22;60019;45.556;12.004;2023-02-11T19:58:26;16.40;63.90
29303;DHT22;60019;45.556;12.004;2023-02-11T20:04:28;16.40;63.90
29303;DHT22;60019;45.556;12.004;2023-02-11T20:10:33;16.40;63.90
29303;DHT22;60019;45.556;12.004;2023-02-11T20:16:35;16.30;63.80
29303;DHT22;60019;45.556;12.004;2023-02-11T20:22:37;16.30;63.70
29303;DHT22;60019;45.556;12.004;2023-02-11T20:28:38;16.30;63.70
29303;DHT22;60019;45.556;12.004;2023-02-11T20:34:40;16.30;63.60
29303;DHT22;60019;45.556;12.004;2023-02-11T20:40:42;16.20;63.60
29303;DHT22;60019;45.556;12.004;2023-02-11T20:46:44;16.20;63.50
29303;DHT22;60019;45.556;12.004;2023-02-11T20:52:46;16.20;63.60
29303;DHT22;60019;45.556;12.004;2023-02-11T20:58:48;16.20;63.50
29303;DHT22;60019;45.556;12.004;2023-02-11T21:04:50;16.20;63.60
29303;DHT22;60019;45.556;12.004;2023-02-11T21:10:52;16.20;64.30
29303;DHT22;60019;45.556;12.004;2023-02-11T21:16:54;16.20;63.30
29303;DHT22;60019;45.556;12.004;2023-02-11T21:22:55;15.60;63.50
29303;DHT22;60019;45.556;12.004;2023-02-11T21:28:57;15.70;63.70
29303;DHT22;60019;45.556;12.004;2023-02-11T21:34:58;15.80;63.70
29303;DHT22;60019;45.556;12.004;2023-02-11T21:41:04;15.80;63.60
29303;DHT22;60019;45.556;12.004;2023-02-11T21:47:05;15.80;63.60
29303;DHT22;60019;45.556;12.004;2023-02-11T21:53:08;15.80;63.50
29303;DHT22;60019;45.556;12.004;2023-02-11T21:59:11;15.80;63.50
29303;DHT22;60019;45.556;12.004;2023-02-11T22:05:17;15.80;63.50
29303;DHT22;60019;45.556;12.004;2023-02-11T22:11:19;15.80;63.50
29303;DHT22;60019;45.556;12.004;2023-02-11T22:17:21;15.90;63.60
29303;DHT22;60019;45.556;12.004;2023-02-11T22:23:23;15.80;63.50
29303;DHT22;60019;45.556;12.004;2023-02-11T22:29:24;15.80;63.40
29303;DHT22;60019;45.556;12.004;2023-02-11T22:35:26;15.80;63.50
29303;DHT22;60019;45.556;12.004;2023-02-11T22:41:28;15.70;63.50
29303;DHT22;60019;45.556;12.004;2023-02-11T22:47:29;15.60;63.50
29303;DHT22;60019;45.556;12.004;2023-02-11T22:53:31;15.60;63.30
29303;DHT22;60019;45.556;12.004;2023-02-11T22:59:32;15.60;63.10
29303;DHT22;60019;45.556;12.004;2023-02-11T23:05:41;15.60;63.20
29303;DHT22;60019;45.556;12.004;2023-02-11T23:11:43;15.50;63.20
29303;DHT22;60019;45.556;12.004;2023-02-11T23:17:44;15.30;63.30
29303;DHT22;60019;45.556;12.004;2023-02-11T23:23:47;15.00;63.30
29303;DHT22;60019;45.556;12.004;2023-02-11T23:29:49;14.70;63.40
29303;DHT22;60019;45.556;12.004;2023-02-11T23:35:50;14.40;63.60
29303;DHT22;60019;45.556;12.004;2023-02-11T23:41:52;14.10;63.80
29303;DHT22;60019;45.556;12.004;2023-02-11T23:47:59;13.90;64.10
29303;DHT22;60019;45.556;12.004;2023-02-11T23:54:00;13.60;64.20
